Terminal Aerodrome Forecast
Issued by NWS

Home | Current Version | Previous Version | Text Only | Print | Product List | Glossary Off
Versions: 1 2 3 4 5 6 7 8 9 10 11 12 13 14 15 16 17 18 19 20 21 22 23 24 25 26 27 28 29 30 31 32 33

000
FTUS43 KGRB 231100
TAFRHI
TAF
KRHI 231136Z 2312/2412 24014G22KT P6SM BKN012 OVC070 WS015/25040KT
     FM231400 24012G18KT P6SM SCT015 OVC050 WS016/25040KT
      TEMPO 2316/2320 -PLSN BKN040
     FM232200 26007KT P6SM BKN020 OVC050
     FM240100 29007KT P6SM OVC012=

USA.gov is the U.S. government's official web portal to all federal, state and local government web resources and services.